Terminal Aerodrome Forecast
Issued by NWS Milwaukee/Sullivan, WI

Home | Current Version | Previous Version | Text Only | Print | Product List | Glossary On
Versions: 1 2 3 4 5 6 7 8 9 10 11 12 13 14 15 16 17 18 19 20 21 22 23 24 25 26 27 28 29
000
FTUS43 KMKX 210301 AAA
TAFMKE
TAF AMD
KMKE 210301Z 2103/2206 19006KT P6SM BKN070
     FM211200 23005KT 4SM -RA BR OVC050
     FM211400 22007KT 4SM -SHRA BR OVC025
     FM211700 25008KT 4SM -SHRA HZ OVC015
     FM212000 27010KT 6SM -RA OVC025
     FM212300 29010KT 6SM -RA OVC035=

USA.gov is the U.S. government's official web portal to all federal, state and local government web resources and services.